Time;durP1;ratioP1;P1;durP2;ratioP2;P2;SDS_P1;SDS_P2;PMS_P1;PMS_P2;Temp;Humidity;BMP_temperature;BMP_pressure;BME280_temperature;BME280_humidity;BME280_pressure;Samples;Min_cycle;Max_cycle;Signal;HPM_P1;HPM_P2
2023/08/24 00:00:46;;;;;;;7.53;4.65;;;;;;;;;;6214460;28;20099;-81
2023/08/24 00:03:49;;;;;;;6.55;4.68;;;;;;;;;;6229606;28;20041;-79
2023/08/24 00:06:50;;;;;;;7.30;4.90;;;;;;;;;;6230822;28;20517;-80
2023/08/24 00:09:53;;;;;;;5.57;4.50;;;;;;;;;;6233505;28;20065;-79
2023/08/24 00:12:54;;;;;;;6.38;4.28;;;;;;;;;;6230409;28;20109;-80
2023/08/24 00:15:56;;;;;;;6.40;4.68;;;;;;;;;;6183481;28;20048;-79
2023/08/24 00:18:58;;;;;;;5.85;4.63;;;;;;;;;;6224529;28;20045;-79
2023/08/24 00:21:59;;;;;;;7.18;4.70;;;;;;;;;;6209793;28;20570;-78
2023/08/24 00:25:01;;;;;;;6.22;4.97;;;;;;;;;;6227562;28;20053;-79
2023/08/24 00:28:03;;;;;;;4.70;4.30;;;;;;;;;;6214196;28;20126;-77
2023/08/24 00:31:05;;;;;;;6.70;5.83;;;;;;;;;;6228938;28;20525;-81
2023/08/24 00:34:07;;;;;;;9.20;5.20;;;;;;;;;;6213501;28;20041;-78
2023/08/24 00:37:08;;;;;;;5.43;4.43;;;;;;;;;;6193137;28;20187;-79
2023/08/24 00:40:10;;;;;;;8.50;4.90;;;;;;;;;;6229791;28;20041;-80
2023/08/24 00:43:13;;;;;;;6.32;5.03;;;;;;;;;;6234247;28;20041;-81
2023/08/24 00:46:14;;;;;;;6.75;5.03;;;;;;;;;;6228185;28;20107;-79
2023/08/24 00:49:16;;;;;;;5.85;5.13;;;;;;;;;;6233253;28;20052;-79
2023/08/24 00:52:18;;;;;;;6.63;5.25;;;;;;;;;;6230580;28;20050;-79
2023/08/24 00:55:21;;;;;;;7.10;5.30;;;;;;;;;;6214368;28;20042;-80
2023/08/24 00:58:23;;;;;;;5.35;4.78;;;;;;;;;;6214916;28;20099;-78
2023/08/24 01:01:25;;;;;;;6.50;4.93;;;;;;;;;;6235115;28;20404;-80
2023/08/24 01:04:26;;;;;;;6.30;5.03;;;;;;;;;;6230306;28;20551;-80
2023/08/24 01:07:29;;;;;;;5.93;4.75;;;;;;;;;;6230254;28;20049;-80
2023/08/24 01:10:44;;;;;;;6.45;4.85;;;;;;;;;;6226688;28;20168;-80
2023/08/24 01:13:52;;;;;;;6.13;5.05;;;;;;;;;;6234645;28;20412;-78
2023/08/24 01:16:58;;;;;;;6.47;5.20;;;;;;;;;;6235578;28;20305;-81
2023/08/24 01:20:05;;;;;;;6.10;4.60;;;;;;;;;;6237262;28;20042;-78
2023/08/24 01:23:18;;;;;;;9.88;5.28;;;;;;;;;;6233275;28;20049;-80
2023/08/24 01:26:20;;;;;;;6.47;5.03;;;;;;;;;;6228200;28;20072;-80
2023/08/24 01:29:22;;;;;;;6.50;5.88;;;;;;;;;;6233095;28;20041;-81
2023/08/24 01:32:24;;;;;;;7.45;5.30;;;;;;;;;;6234960;28;20057;-80
2023/08/24 01:35:26;;;;;;;7.82;6.13;;;;;;;;;;6235938;28;20140;-80
2023/08/24 01:38:29;;;;;;;7.47;5.32;;;;;;;;;;6230665;28;20045;-79
2023/08/24 01:41:37;;;;;;;6.85;5.60;;;;;;;;;;6218143;28;20127;-80
2023/08/24 01:44:41;;;;;;;6.95;5.50;;;;;;;;;;6216352;28;20502;-80
2023/08/24 01:47:44;;;;;;;8.00;5.72;;;;;;;;;;6230764;28;20122;-81
2023/08/24 01:50:46;;;;;;;7.30;5.53;;;;;;;;;;6217175;28;20042;-78
2023/08/24 01:53:49;;;;;;;5.68;5.05;;;;;;;;;;6219669;28;20060;-81
2023/08/24 01:56:50;;;;;;;;;;;;;;;;;;6218077;28;20045;-80
2023/08/24 01:59:52;;;;;;;8.00;5.78;;;;;;;;;;6225026;28;19944;-78
2023/08/24 02:02:54;;;;;;;11.60;5.82;;;;;;;;;;6186191;28;20049;-80
2023/08/24 02:05:56;;;;;;;8.52;5.53;;;;;;;;;;6215917;28;20053;-80
2023/08/24 02:08:57;;;;;;;8.20;5.93;;;;;;;;;;6237173;28;20053;-79
2023/08/24 02:11:59;;;;;;;7.05;5.90;;;;;;;;;;6224663;28;20042;-79
2023/08/24 02:15:01;;;;;;;10.40;5.88;;;;;;;;;;6198788;28;20038;-78
2023/08/24 02:18:03;;;;;;;8.50;5.68;;;;;;;;;;6238649;28;20622;-80
2023/08/24 02:21:12;;;;;;;6.70;5.07;;;;;;;;;;6234299;28;20573;-78
2023/08/24 02:24:14;;;;;;;7.72;5.28;;;;;;;;;;6216272;28;20049;-79
2023/08/24 02:27:16;;;;;;;6.50;5.75;;;;;;;;;;6231292;28;20045;-78
2023/08/24 02:30:18;;;;;;;7.13;6.18;;;;;;;;;;6214911;28;20095;-81
2023/08/24 02:33:19;;;;;;;7.63;6.00;;;;;;;;;;6254699;28;20053;-78
2023/08/24 02:36:21;;;;;;;8.55;5.85;;;;;;;;;;6231883;28;20061;-80
2023/08/24 02:39:23;;;;;;;6.10;5.50;;;;;;;;;;6223670;28;20057;-80
2023/08/24 02:42:25;;;;;;;10.20;5.28;;;;;;;;;;6220507;28;20042;-77
2023/08/24 02:45:28;;;;;;;8.02;6.07;;;;;;;;;;6218843;28;20057;-77
2023/08/24 02:48:31;;;;;;;8.82;5.72;;;;;;;;;;6233292;28;20223;-78
2023/08/24 02:51:32;;;;;;;9.30;5.88;;;;;;;;;;6209681;28;20104;-78
2023/08/24 02:54:34;;;;;;;8.80;5.97;;;;;;;;;;6232624;28;20053;-80
2023/08/24 02:57:36;;;;;;;9.10;6.18;;;;;;;;;;6234373;28;20049;-79
2023/08/24 03:00:38;;;;;;;7.53;5.63;;;;;;;;;;6225565;28;20666;-78
2023/08/24 03:03:40;;;;;;;7.35;6.35;;;;;;;;;;6227390;28;20041;-80
2023/08/24 03:06:44;;;;;;;7.47;5.38;;;;;;;;;;6215383;28;20461;-79
2023/08/24 03:09:45;;;;;;;6.43;5.60;;;;;;;;;;6204199;28;20091;-79
2023/08/24 03:12:47;;;;;;;10.40;6.05;;;;;;;;;;6209027;28;20042;-79
2023/08/24 03:15:52;;;;;;;10.55;6.32;;;;;;;;;;6219759;28;20076;-79
2023/08/24 03:18:54;;;;;;;;;;;;;;;;;;6215155;28;20114;-78
2023/08/24 03:21:57;;;;;;;8.40;6.07;;;;;;;;;;6218141;28;19957;-78
2023/08/24 03:24:58;;;;;;;10.02;7.05;;;;;;;;;;6208241;28;20045;-79
2023/08/24 03:28:00;;;;;;;6.63;5.75;;;;;;;;;;6236585;28;20141;-78
2023/08/24 03:31:02;;;;;;;11.38;7.68;;;;;;;;;;6214209;28;20645;-80
2023/08/24 03:34:04;;;;;;;8.95;6.18;;;;;;;;;;6212361;28;20686;-77
2023/08/24 03:37:06;;;;;;;9.23;6.47;;;;;;;;;;6237672;28;20069;-80
2023/08/24 03:40:09;;;;;;;8.48;6.50;;;;;;;;;;6245284;28;20091;-78
2023/08/24 03:43:11;;;;;;;10.00;6.70;;;;;;;;;;6235564;28;20071;-77
2023/08/24 03:46:14;;;;;;;9.77;6.70;;;;;;;;;;6211442;28;20121;-79
2023/08/24 03:49:17;;;;;;;7.82;5.90;;;;;;;;;;6184643;28;20106;-78
2023/08/24 03:52:19;;;;;;;6.32;5.40;;;;;;;;;;6219285;28;20104;-78
2023/08/24 03:55:21;;;;;;;6.85;6.00;;;;;;;;;;6225059;28;20077;-80
2023/08/24 03:58:23;;;;;;;9.63;6.47;;;;;;;;;;6238020;28;20049;-80
2023/08/24 04:01:26;;;;;;;9.57;6.47;;;;;;;;;;6209180;28;20120;-79
2023/08/24 04:04:30;;;;;;;9.25;6.50;;;;;;;;;;6238514;28;20046;-78
2023/08/24 04:07:33;;;;;;;8.15;6.32;;;;;;;;;;6233774;28;20049;-80
2023/08/24 04:10:34;;;;;;;7.72;6.70;;;;;;;;;;6217884;28;20115;-79
2023/08/24 04:13:36;;;;;;;10.57;7.10;;;;;;;;;;6233513;28;20037;-80
2023/08/24 04:16:38;;;;;;;10.13;5.90;;;;;;;;;;6234458;28;20064;-79
2023/08/24 04:19:39;;;;;;;7.95;6.65;;;;;;;;;;6213223;28;20111;-79
2023/08/24 04:22:41;;;;;;;8.75;6.68;;;;;;;;;;6234946;28;20571;-79
2023/08/24 04:25:43;;;;;;;8.83;6.13;;;;;;;;;;6215649;28;20232;-79
2023/08/24 04:28:45;;;;;;;7.68;6.03;;;;;;;;;;6230920;28;20053;-78
2023/08/24 04:31:46;;;;;;;8.80;5.68;;;;;;;;;;6231609;28;20052;-79
2023/08/24 04:34:48;;;;;;;7.45;6.05;;;;;;;;;;6233264;28;20096;-79
2023/08/24 04:37:49;;;;;;;8.25;6.35;;;;;;;;;;6235546;28;20042;-78
2023/08/24 04:40:53;;;;;;;9.57;6.38;;;;;;;;;;6235108;28;20835;-79
2023/08/24 04:43:55;;;;;;;6.72;5.97;;;;;;;;;;6233198;28;20056;-80
2023/08/24 04:46:57;;;;;;;9.50;5.88;;;;;;;;;;6234500;28;20044;-80
2023/08/24 04:49:59;;;;;;;9.48;6.38;;;;;;;;;;6216071;28;20069;-79
2023/08/24 04:53:01;;;;;;;8.48;7.00;;;;;;;;;;6231646;28;20171;-78
2023/08/24 04:56:02;;;;;;;10.83;6.67;;;;;;;;;;6234023;28;20072;-79
2023/08/24 04:59:04;;;;;;;10.32;7.05;;;;;;;;;;6215177;28;20077;-77
2023/08/24 05:02:06;;;;;;;9.90;7.18;;;;;;;;;;6234401;28;20065;-80
2023/08/24 05:05:13;;;;;;;8.80;7.07;;;;;;;;;;6201757;28;20065;-80
2023/08/24 05:08:15;;;;;;;10.38;7.60;;;;;;;;;;6213368;28;20046;-78
2023/08/24 05:11:18;;;;;;;9.93;7.28;;;;;;;;;;6230498;28;20701;-79
2023/08/24 05:14:20;;;;;;;8.95;6.90;;;;;;;;;;6229887;28;20527;-77
2023/08/24 05:17:24;;;;;;;9.02;7.03;;;;;;;;;;6232586;28;20046;-79
2023/08/24 05:20:26;;;;;;;9.55;7.00;;;;;;;;;;6224999;28;20056;-79
2023/08/24 05:23:30;;;;;;;10.33;7.10;;;;;;;;;;6238100;28;20072;-79
2023/08/24 05:26:31;;;;;;;;;;;;;;;;;;6238610;28;20045;-80
2023/08/24 05:29:33;;;;;;;10.82;6.68;;;;;;;;;;6218719;28;19925;-79
2023/08/24 05:32:38;;;;;;;9.95;6.50;;;;;;;;;;6228619;28;20046;-79
2023/08/24 05:35:40;;;;;;;9.30;6.80;;;;;;;;;;6208791;28;20105;-79
2023/08/24 05:38:46;;;;;;;7.57;6.38;;;;;;;;;;6228204;28;20462;-80
2023/08/24 05:42:05;;;;;;;10.77;7.53;;;;;;;;;;6206831;28;20530;-79
2023/08/24 05:45:07;;;;;;;8.52;7.00;;;;;;;;;;6223202;28;20400;-79
2023/08/24 05:48:09;;;;;;;8.73;7.23;;;;;;;;;;6213238;28;20045;-77
2023/08/24 05:51:12;;;;;;;13.05;6.80;;;;;;;;;;6221098;28;20038;-77
2023/08/24 05:54:18;;;;;;;8.38;6.68;;;;;;;;;;6222045;28;20079;-77
2023/08/24 05:57:20;;;;;;;12.90;6.82;;;;;;;;;;6228181;28;20049;-77
2023/08/24 06:00:22;;;;;;;9.65;6.82;;;;;;;;;;6234171;28;20521;-77
2023/08/24 06:03:25;;;;;;;11.77;6.53;;;;;;;;;;6224984;28;20053;-78
2023/08/24 06:06:26;;;;;;;14.57;6.43;;;;;;;;;;6222537;28;20060;-79
2023/08/24 06:09:28;;;;;;;10.90;7.13;;;;;;;;;;6221339;28;20045;-78
2023/08/24 06:12:30;;;;;;;12.18;7.15;;;;;;;;;;6207693;28;20180;-78
2023/08/24 06:15:31;;;;;;;12.23;7.25;;;;;;;;;;6230016;28;20050;-79
2023/08/24 06:18:33;;;;;;;13.57;7.70;;;;;;;;;;6225371;28;20049;-78
2023/08/24 06:21:35;;;;;;;15.25;7.93;;;;;;;;;;6222736;28;20042;-78
2023/08/24 06:24:36;;;;;;;11.95;7.60;;;;;;;;;;6226933;28;20041;-78
2023/08/24 06:27:38;;;;;;;15.80;7.82;;;;;;;;;;6220808;28;20121;-78
2023/08/24 06:30:41;;;;;;;12.32;7.95;;;;;;;;;;6203201;28;20048;-78
2023/08/24 06:33:42;;;;;;;11.50;7.93;;;;;;;;;;6224127;28;20054;-78
2023/08/24 06:36:44;;;;;;;11.75;7.93;;;;;;;;;;6225607;28;20050;-78
2023/08/24 06:39:46;;;;;;;13.15;7.57;;;;;;;;;;6208900;28;20045;-79
2023/08/24 06:42:47;;;;;;;21.50;12.23;;;;;;;;;;6228875;28;20050;-78
2023/08/24 06:45:49;;;;;;;26.02;12.40;;;;;;;;;;6227218;28;20037;-79
2023/08/24 06:48:51;;;;;;;11.38;7.70;;;;;;;;;;6226229;28;20405;-78
2023/08/24 06:51:53;;;;;;;12.50;7.95;;;;;;;;;;6223504;28;20081;-78
2023/08/24 06:54:57;;;;;;;13.10;8.27;;;;;;;;;;6229512;28;20120;-79
2023/08/24 06:57:58;;;;;;;14.65;9.20;;;;;;;;;;6230762;28;21014;-79
2023/08/24 07:01:05;;;;;;;17.42;8.80;;;;;;;;;;6206989;28;20044;-78
2023/08/24 07:04:07;;;;;;;12.30;8.10;;;;;;;;;;6204741;28;20171;-79
2023/08/24 07:07:09;;;;;;;12.50;7.47;;;;;;;;;;6227915;28;20053;-78
2023/08/24 07:10:11;;;;;;;12.73;7.93;;;;;;;;;;6229078;28;20099;-79
2023/08/24 07:13:13;;;;;;;12.27;7.93;;;;;;;;;;6223288;28;20447;-78
2023/08/24 07:16:15;;;;;;;15.80;9.55;;;;;;;;;;6199654;28;20069;-78
2023/08/24 07:19:16;;;;;;;14.13;7.78;;;;;;;;;;6204536;28;20515;-78
2023/08/24 07:22:19;;;;;;;10.23;7.72;;;;;;;;;;6196749;28;20096;-78
2023/08/24 07:25:21;;;;;;;14.65;7.70;;;;;;;;;;6194304;28;20043;-78
2023/08/24 07:28:23;;;;;;;10.02;7.30;;;;;;;;;;6207344;28;20045;-77
2023/08/24 07:31:25;;;;;;;10.07;6.75;;;;;;;;;;6225691;28;20053;-79
2023/08/24 07:34:28;;;;;;;9.53;6.93;;;;;;;;;;6204851;28;20054;-78
2023/08/24 07:37:30;;;;;;;9.15;6.97;;;;;;;;;;6207966;28;20460;-78
2023/08/24 07:40:32;;;;;;;8.73;6.60;;;;;;;;;;6229757;28;20045;-78
2023/08/24 07:43:34;;;;;;;8.57;6.25;;;;;;;;;;6205674;28;20053;-78
2023/08/24 07:46:35;;;;;;;7.70;6.60;;;;;;;;;;6216768;28;20157;-80
2023/08/24 07:49:43;;;;;;;9.40;6.80;;;;;;;;;;6229620;28;20068;-79
2023/08/24 07:52:44;;;;;;;9.25;6.68;;;;;;;;;;6211627;28;20042;-78
2023/08/24 07:55:46;;;;;;;7.50;6.03;;;;;;;;;;6188455;28;20052;-79
2023/08/24 07:58:48;;;;;;;8.77;6.07;;;;;;;;;;6205326;28;20053;-79
2023/08/24 08:01:50;;;;;;;9.30;5.70;;;;;;;;;;6216825;28;20537;-79
2023/08/24 08:04:57;;;;;;;8.57;6.88;;;;;;;;;;6227196;28;20053;-79
2023/08/24 08:07:59;;;;;;;8.85;6.00;;;;;;;;;;6196094;28;20052;-79
2023/08/24 08:11:02;;;;;;;7.00;6.30;;;;;;;;;;6229331;28;20426;-79
2023/08/24 08:14:04;;;;;;;7.70;6.28;;;;;;;;;;6216221;28;20543;-79
2023/08/24 08:17:06;;;;;;;6.20;5.57;;;;;;;;;;6205257;28;20050;-79
2023/08/24 08:20:08;;;;;;;6.50;5.25;;;;;;;;;;6225465;28;20054;-79
2023/08/24 08:23:09;;;;;;;5.95;5.35;;;;;;;;;;6225562;28;20045;-77
2023/08/24 08:26:13;;;;;;;7.47;5.25;;;;;;;;;;6225648;28;20656;-78
2023/08/24 08:29:16;;;;;;;6.20;4.93;;;;;;;;;;6225165;28;20163;-80
2023/08/24 08:32:18;;;;;;;;;;;;;;;;;;6228523;28;20119;-78
2023/08/24 08:35:19;;;;;;;6.97;4.85;;;;;;;;;;6229216;28;19928;-78
2023/08/24 08:38:25;;;;;;;7.95;4.53;;;;;;;;;;6230107;28;20050;-79
2023/08/24 08:41:33;;;;;;;7.43;4.55;;;;;;;;;;6231188;28;20462;-78
2023/08/24 08:44:34;;;;;;;8.15;4.65;;;;;;;;;;6229517;28;20056;-78
2023/08/24 08:47:37;;;;;;;5.53;4.13;;;;;;;;;;6229923;28;20049;-78
2023/08/24 08:50:39;;;;;;;6.75;4.22;;;;;;;;;;6230846;28;20049;-79
2023/08/24 08:53:40;;;;;;;5.67;4.20;;;;;;;;;;6232491;28;20156;-78
2023/08/24 08:56:42;;;;;;;5.20;3.73;;;;;;;;;;6230561;28;20041;-78
2023/08/24 08:59:45;;;;;;;4.65;4.05;;;;;;;;;;6222756;28;20083;-79
2023/08/24 09:02:49;;;;;;;6.72;3.95;;;;;;;;;;6224756;28;20045;-78
2023/08/24 09:05:51;;;;;;;5.03;4.00;;;;;;;;;;6226609;28;20045;-78
2023/08/24 09:08:53;;;;;;;4.43;3.60;;;;;;;;;;6208932;28;20045;-79
2023/08/24 09:11:54;;;;;;;4.10;3.70;;;;;;;;;;6210621;28;20511;-80
2023/08/24 09:14:56;;;;;;;5.07;3.63;;;;;;;;;;6228962;28;20053;-80
2023/08/24 09:17:59;;;;;;;4.10;3.63;;;;;;;;;;6229490;28;20037;-79
2023/08/24 09:21:08;;;;;;;4.20;3.30;;;;;;;;;;6224895;28;20534;-79
2023/08/24 09:24:10;;;;;;;4.07;2.80;;;;;;;;;;6230251;28;20045;-80
2023/08/24 09:27:20;;;;;;;4.35;3.08;;;;;;;;;;6225171;28;20064;-78
2023/08/24 09:30:22;;;;;;;4.97;2.38;;;;;;;;;;6253144;28;20110;-77
2023/08/24 09:33:25;;;;;;;4.10;2.40;;;;;;;;;;6236134;28;20054;-78
2023/08/24 09:36:32;;;;;;;4.53;2.75;;;;;;;;;;6221827;28;20053;-79
2023/08/24 09:39:34;;;;;;;3.15;2.65;;;;;;;;;;6214629;28;20057;-79
2023/08/24 09:42:41;;;;;;;2.85;2.40;;;;;;;;;;6219688;28;20042;-79
2023/08/24 09:45:54;;;;;;;4.70;2.60;;;;;;;;;;6201897;28;20050;-79
2023/08/24 09:48:58;;;;;;;;;;;;;;;;;;6200878;28;20046;-80
2023/08/24 09:52:00;;;;;;;4.93;2.85;;;;;;;;;;6201122;28;20272;-79
2023/08/24 09:55:07;;;;;;;;;;;;;;;;;;6188607;28;20034;-78
2023/08/24 09:58:10;;;;;;;3.30;2.55;;;;;;;;;;6222558;28;19932;-76
2023/08/24 10:01:12;;;;;;;2.75;2.47;;;;;;;;;;6223850;28;20041;-77
2023/08/24 10:04:17;;;;;;;4.40;2.40;;;;;;;;;;6209387;28;20050;-77
2023/08/24 10:07:22;;;;;;;4.03;1.90;;;;;;;;;;6205679;28;20105;-77
2023/08/24 10:10:27;;;;;;;2.92;1.85;;;;;;;;;;6228637;28;20045;-77
2023/08/24 10:13:41;;;;;;;3.40;1.90;;;;;;;;;;6207166;28;20045;-77
2023/08/24 10:16:44;;;;;;;4.93;2.20;;;;;;;;;;6208340;28;20046;-77
2023/08/24 10:19:46;;;;;;;6.18;2.60;;;;;;;;;;6222263;28;20034;-78
2023/08/24 10:22:50;;;;;;;3.78;2.30;;;;;;;;;;6223150;28;20049;-78
2023/08/24 10:25:53;;;;;;;4.03;2.20;;;;;;;;;;6227543;28;20047;-78
2023/08/24 10:28:57;;;;;;;4.10;2.05;;;;;;;;;;6224432;28;20048;-78
2023/08/24 10:32:01;;;;;;;2.80;2.10;;;;;;;;;;6225520;28;20045;-77
2023/08/24 10:35:03;;;;;;;2.20;2.00;;;;;;;;;;6226101;28;20072;-78
2023/08/24 10:38:05;;;;;;;2.55;2.08;;;;;;;;;;6205812;28;20511;-78
2023/08/24 10:41:07;;;;;;;4.45;2.40;;;;;;;;;;6235515;28;20041;-80
2023/08/24 10:44:20;;;;;;;2.53;2.05;;;;;;;;;;6236906;28;20078;-79
2023/08/24 10:47:25;;;;;;;2.95;2.30;;;;;;;;;;6236574;28;20049;-78
2023/08/24 10:50:28;;;;;;;3.40;2.40;;;;;;;;;;6219769;28;20060;-77
2023/08/24 10:53:45;;;;;;;3.63;2.30;;;;;;;;;;6235583;28;20046;-77
2023/08/24 10:56:58;;;;;;;3.53;2.20;;;;;;;;;;6234398;28;20056;-80
2023/08/24 11:00:12;;;;;;;4.40;2.72;;;;;;;;;;6234271;28;20091;-78
2023/08/24 11:03:31;;;;;;;4.90;2.47;;;;;;;;;;6231271;28;20038;-79
2023/08/24 11:06:32;;;;;;;3.63;2.30;;;;;;;;;;6216452;28;20516;-79
2023/08/24 11:09:47;;;;;;;5.40;2.42;;;;;;;;;;6236639;28;20068;-78
2023/08/24 11:13:02;;;;;;;3.85;2.72;;;;;;;;;;6233267;28;20033;-79
2023/08/24 11:16:09;;;;;;;4.65;2.45;;;;;;;;;;6232357;28;20041;-79
2023/08/24 11:19:14;;;;;;;3.75;2.30;;;;;;;;;;6217410;28;20504;-77
2023/08/24 11:22:17;;;;;;;2.97;2.13;;;;;;;;;;6210569;28;20052;-77
2023/08/24 11:25:22;;;;;;;2.40;2.03;;;;;;;;;;6234521;28;20068;-77
2023/08/24 11:28:25;;;;;;;4.28;2.20;;;;;;;;;;6234469;28;20057;-76
2023/08/24 11:31:28;;;;;;;3.10;2.20;;;;;;;;;;6235378;28;20522;-76
2023/08/24 11:34:30;;;;;;;2.80;2.00;;;;;;;;;;6225065;28;20396;-76
2023/08/24 11:37:32;;;;;;;;;;;;;;;;;;6213922;28;20042;-76
2023/08/24 11:40:34;;;;;;;3.00;2.20;;;;;;;;;;6214952;28;19921;-78
2023/08/24 11:43:36;;;;;;;2.95;2.30;;;;;;;;;;6232813;28;20053;-76
2023/08/24 11:46:39;;;;;;;3.78;1.90;;;;;;;;;;6203204;28;20808;-76
2023/08/24 11:49:41;;;;;;;3.80;2.30;;;;;;;;;;6205247;28;20175;-76
2023/08/24 11:52:43;;;;;;;2.75;2.10;;;;;;;;;;6215451;28;20049;-79
2023/08/24 11:55:45;;;;;;;4.53;2.00;;;;;;;;;;6232429;28;20049;-77
2023/08/24 11:59:04;;;;;;;2.33;1.95;;;;;;;;;;6226859;28;20048;-76
2023/08/24 12:02:09;;;;;;;3.35;2.30;;;;;;;;;;6232060;28;20045;-76
2023/08/24 12:05:26;;;;;;;6.38;2.17;;;;;;;;;;6210049;28;20081;-77
2023/08/24 12:08:27;;;;;;;3.03;2.10;;;;;;;;;;6210179;28;22004;-77
2023/08/24 12:11:35;;;;;;;2.95;2.15;;;;;;;;;;6229438;28;20526;-77
2023/08/24 12:14:41;;;;;;;3.35;2.55;;;;;;;;;;6233135;28;20530;-77
2023/08/24 12:17:44;;;;;;;5.13;2.03;;;;;;;;;;6192369;28;20042;-76
2023/08/24 12:20:47;;;;;;;4.80;2.40;;;;;;;;;;6207284;28;20049;-77
2023/08/24 12:23:58;;;;;;;2.95;2.10;;;;;;;;;;6225113;28;20041;-76
2023/08/24 12:27:03;;;;;;;3.83;2.13;;;;;;;;;;6231168;28;20048;-76
2023/08/24 12:30:06;;;;;;;3.05;2.13;;;;;;;;;;6206068;28;20091;-76
2023/08/24 12:33:27;;;;;;;2.20;1.92;;;;;;;;;;6221433;28;20129;-76
2023/08/24 12:36:29;;;;;;;3.65;2.35;;;;;;;;;;6226618;28;20053;-76
2023/08/24 12:39:40;;;;;;;2.63;2.10;;;;;;;;;;6227521;28;20056;-78
2023/08/24 12:42:42;;;;;;;2.13;1.92;;;;;;;;;;6225576;28;20046;-80
2023/08/24 12:45:43;;;;;;;2.58;1.90;;;;;;;;;;6233218;28;20046;-80
2023/08/24 12:48:45;;;;;;;3.40;2.40;;;;;;;;;;6238635;28;20131;-79
2023/08/24 12:51:47;;;;;;;3.08;1.90;;;;;;;;;;6217627;28;20077;-79
2023/08/24 12:54:49;;;;;;;3.65;2.55;;;;;;;;;;6199973;28;20053;-79
2023/08/24 12:57:50;;;;;;;2.40;2.20;;;;;;;;;;6242129;28;20048;-80
2023/08/24 13:00:52;;;;;;;;;;;;;;;;;;6250848;28;20081;-78
2023/08/24 13:03:54;;;;;;;3.67;2.55;;;;;;;;;;6258291;28;19955;-77
2023/08/24 13:06:55;;;;;;;5.20;2.40;;;;;;;;;;6238259;28;20056;-78
2023/08/24 13:09:57;;;;;;;2.92;1.95;;;;;;;;;;6218739;28;20049;-78
2023/08/24 13:12:59;;;;;;;3.83;2.33;;;;;;;;;;6205419;28;20052;-80
2023/08/24 13:16:00;;;;;;;3.00;2.17;;;;;;;;;;6223414;28;20120;-79
2023/08/24 13:19:02;;;;;;;3.70;2.28;;;;;;;;;;6230055;28;20585;-79
2023/08/24 13:22:04;;;;;;;2.75;2.22;;;;;;;;;;6226451;28;20053;-78
2023/08/24 13:25:06;;;;;;;2.45;1.90;;;;;;;;;;6214560;28;20053;-80
2023/08/24 13:28:08;;;;;;;;;;;;;;;;;;6226419;28;20781;-79
2023/08/24 13:31:09;;;;;;;3.92;2.00;;;;;;;;;;6233709;28;20014;-79
2023/08/24 13:34:11;;;;;;;3.83;2.33;;;;;;;;;;6212437;28;20045;-80
2023/08/24 13:37:13;;;;;;;2.92;2.30;;;;;;;;;;6225680;28;20117;-79
2023/08/24 13:40:14;;;;;;;3.40;2.10;;;;;;;;;;6231756;28;20053;-81
2023/08/24 13:43:16;;;;;;;2.40;1.90;;;;;;;;;;6231680;28;20180;-79
2023/08/24 13:46:18;;;;;;;3.60;2.15;;;;;;;;;;6228667;28;20061;-80
2023/08/24 13:49:20;;;;;;;6.20;2.50;;;;;;;;;;6226015;28;20042;-77
2023/08/24 13:52:40;;;;;;;3.97;2.15;;;;;;;;;;6214536;28;20049;-76
2023/08/24 13:55:41;;;;;;;3.13;2.17;;;;;;;;;;6228517;28;20504;-74
2023/08/24 13:58:43;;;;;;;3.65;2.22;;;;;;;;;;6222287;28;20138;-76
2023/08/24 14:01:45;;;;;;;;;;;;;;;;;;6229394;28;20037;-77
2023/08/24 14:04:47;;;;;;;5.85;2.45;;;;;;;;;;6228289;28;19925;-77
2023/08/24 14:07:48;;;;;;;6.28;2.80;;;;;;;;;;6223401;28;20056;-77
2023/08/24 14:10:52;;;;;;;4.05;2.10;;;;;;;;;;6208044;28;20045;-77
2023/08/24 14:13:53;;;;;;;3.65;2.42;;;;;;;;;;6227277;28;20052;-77
2023/08/24 14:16:58;;;;;;;4.80;2.20;;;;;;;;;;6225404;28;20053;-76
2023/08/24 14:20:00;;;;;;;5.82;3.05;;;;;;;;;;6229430;28;20045;-78
2023/08/24 14:23:03;;;;;;;4.88;2.33;;;;;;;;;;6227334;28;20050;-77
2023/08/24 14:26:05;;;;;;;3.25;2.30;;;;;;;;;;6222714;28;20042;-77
2023/08/24 14:29:06;;;;;;;5.53;3.00;;;;;;;;;;6223786;28;20119;-77
2023/08/24 14:32:08;;;;;;;3.20;2.53;;;;;;;;;;6227047;28;20065;-77
2023/08/24 14:35:10;;;;;;;3.97;2.70;;;;;;;;;;6211313;28;20052;-80
2023/08/24 14:38:11;;;;;;;4.37;2.73;;;;;;;;;;6218056;28;20469;-80
2023/08/24 14:41:14;;;;;;;4.27;2.60;;;;;;;;;;6236174;28;20444;-79
2023/08/24 14:44:16;;;;;;;4.00;2.38;;;;;;;;;;6238812;28;20041;-80
2023/08/24 14:47:17;;;;;;;7.03;2.80;;;;;;;;;;6237748;28;20136;-79
2023/08/24 14:50:22;;;;;;;5.28;2.97;;;;;;;;;;6236062;28;20073;-79
2023/08/24 14:53:27;;;;;;;3.27;2.63;;;;;;;;;;6205445;28;20073;-78
2023/08/24 14:56:29;;;;;;;5.72;2.70;;;;;;;;;;6236698;28;20517;-79
2023/08/24 14:59:30;;;;;;;4.27;2.70;;;;;;;;;;6214261;28;20144;-80
2023/08/24 15:02:32;;;;;;;4.10;2.50;;;;;;;;;;6224282;28;20133;-81
2023/08/24 15:05:46;;;;;;;3.65;2.38;;;;;;;;;;6232289;28;20077;-80
2023/08/24 15:08:47;;;;;;;4.43;2.78;;;;;;;;;;6229709;28;20159;-80
2023/08/24 15:11:49;;;;;;;4.57;2.70;;;;;;;;;;6236990;28;20057;-80
2023/08/24 15:14:59;;;;;;;3.95;2.22;;;;;;;;;;6232757;28;20815;-80
2023/08/24 15:18:00;;;;;;;3.97;2.45;;;;;;;;;;6236916;28;20038;-79
2023/08/24 15:21:02;;;;;;;4.93;2.53;;;;;;;;;;6231476;28;20554;-79
2023/08/24 15:24:04;;;;;;;3.00;2.60;;;;;;;;;;6217531;28;20415;-79
2023/08/24 15:27:06;;;;;;;2.80;2.25;;;;;;;;;;6227523;28;20050;-80
2023/08/24 15:30:09;;;;;;;4.88;2.50;;;;;;;;;;6231249;28;20053;-79
2023/08/24 15:33:11;;;;;;;6.15;2.78;;;;;;;;;;6210904;28;20046;-82
2023/08/24 15:36:13;;;;;;;4.45;2.80;;;;;;;;;;6233941;28;20057;-81
2023/08/24 15:39:14;;;;;;;4.28;2.67;;;;;;;;;;6221382;28;20513;-80
2023/08/24 15:42:16;;;;;;;4.10;2.37;;;;;;;;;;6222107;28;20057;-79
2023/08/24 15:45:18;;;;;;;3.88;2.50;;;;;;;;;;6236176;28;20849;-79
2023/08/24 15:48:20;;;;;;;4.27;2.73;;;;;;;;;;6237651;28;20045;-79
2023/08/24 15:51:22;;;;;;;5.20;2.60;;;;;;;;;;6230214;28;20122;-80
2023/08/24 15:54:24;;;;;;;4.22;2.50;;;;;;;;;;6224087;28;20049;-81
2023/08/24 15:57:26;;;;;;;2.50;2.30;;;;;;;;;;6227526;28;20586;-80
2023/08/24 16:00:28;;;;;;;3.77;2.50;;;;;;;;;;6226072;28;20100;-80
2023/08/24 16:03:30;;;;;;;5.07;2.65;;;;;;;;;;6229104;28;20485;-80
2023/08/24 16:06:32;;;;;;;6.57;2.60;;;;;;;;;;6227689;28;20073;-80
2023/08/24 16:09:33;;;;;;;5.87;2.67;;;;;;;;;;6224535;28;20045;-80
2023/08/24 16:12:35;;;;;;;3.58;2.88;;;;;;;;;;6227207;28;20125;-79
2023/08/24 16:15:37;;;;;;;7.10;2.90;;;;;;;;;;6228131;28;20053;-78
2023/08/24 16:18:39;;;;;;;3.10;2.50;;;;;;;;;;6232575;28;20057;-80
2023/08/24 16:21:41;;;;;;;3.33;2.70;;;;;;;;;;6207409;28;20053;-80
2023/08/24 16:24:42;;;;;;;3.67;2.70;;;;;;;;;;6236194;28;20045;-79
2023/08/24 16:27:44;;;;;;;3.75;2.55;;;;;;;;;;6237131;28;20038;-81
2023/08/24 16:30:47;;;;;;;7.28;3.30;;;;;;;;;;6217247;28;20128;-77
2023/08/24 16:33:49;;;;;;;4.25;2.83;;;;;;;;;;6183646;28;20046;-77
2023/08/24 16:36:50;;;;;;;6.90;3.97;;;;;;;;;;6222226;28;20042;-77
2023/08/24 16:39:52;;;;;;;4.78;3.03;;;;;;;;;;6228132;28;20038;-77
2023/08/24 16:42:54;;;;;;;4.20;3.22;;;;;;;;;;6202188;28;20049;-77
2023/08/24 16:45:55;;;;;;;6.07;3.72;;;;;;;;;;6209575;28;20077;-77
2023/08/24 16:48:57;;;;;;;5.70;3.90;;;;;;;;;;6229429;28;20131;-77
2023/08/24 16:51:59;;;;;;;6.83;3.23;;;;;;;;;;6210377;28;20076;-77
2023/08/24 16:55:00;;;;;;;5.72;3.30;;;;;;;;;;6225461;28;20476;-77
2023/08/24 16:58:02;;;;;;;5.93;3.50;;;;;;;;;;6207659;28;20096;-76
2023/08/24 17:01:09;;;;;;;4.63;3.60;;;;;;;;;;6189919;28;20091;-77
2023/08/24 17:04:11;;;;;;;4.40;3.45;;;;;;;;;;6185310;28;20044;-77
2023/08/24 17:07:13;;;;;;;7.72;3.50;;;;;;;;;;6224968;28;20136;-77
2023/08/24 17:10:15;;;;;;;4.13;3.30;;;;;;;;;;6225869;28;20045;-77
2023/08/24 17:13:16;;;;;;;3.72;2.63;;;;;;;;;;6227916;28;20092;-77
2023/08/24 17:16:19;;;;;;;3.63;2.28;;;;;;;;;;6223376;28;20670;-77
2023/08/24 17:19:21;;;;;;;3.88;2.70;;;;;;;;;;6224479;28;20049;-77
2023/08/24 17:22:23;;;;;;;5.82;2.53;;;;;;;;;;6228056;28;20052;-76
2023/08/24 17:25:25;;;;;;;5.57;3.07;;;;;;;;;;6226152;28;20045;-77
2023/08/24 17:28:27;;;;;;;4.38;3.50;;;;;;;;;;6228245;28;20186;-77
2023/08/24 17:31:29;;;;;;;4.18;3.17;;;;;;;;;;6205649;28;20057;-77
2023/08/24 17:34:31;;;;;;;5.53;3.37;;;;;;;;;;6211347;28;20049;-77
2023/08/24 17:37:33;;;;;;;4.35;3.00;;;;;;;;;;6213793;28;20124;-77
2023/08/24 17:40:34;;;;;;;3.50;2.97;;;;;;;;;;6202366;28;20609;-77
2023/08/24 17:43:40;;;;;;;4.78;3.20;;;;;;;;;;6226406;28;20562;-76
2023/08/24 17:46:42;;;;;;;5.75;3.20;;;;;;;;;;6226429;28;20057;-77
2023/08/24 17:49:43;;;;;;;4.53;2.77;;;;;;;;;;6223605;28;20716;-77
2023/08/24 17:52:45;;;;;;;5.43;2.92;;;;;;;;;;6209319;28;20049;-77
2023/08/24 17:55:52;;;;;;;6.10;2.70;;;;;;;;;;6217002;28;20049;-76
2023/08/24 17:58:53;;;;;;;4.00;2.80;;;;;;;;;;6220913;28;20045;-77
2023/08/24 18:01:55;;;;;;;8.52;2.60;;;;;;;;;;6223646;28;20045;-77
2023/08/24 18:04:58;;;;;;;4.47;2.75;;;;;;;;;;6205839;28;20045;-77
2023/08/24 18:08:03;;;;;;;6.28;3.15;;;;;;;;;;6224106;28;20045;-77
2023/08/24 18:11:05;;;;;;;7.50;3.67;;;;;;;;;;6209352;28;20427;-77
2023/08/24 18:14:08;;;;;;;;;;;;;;;;;;6208726;28;20045;-77
2023/08/24 18:17:10;;;;;;;3.63;2.85;;;;;;;;;;6219962;28;19924;-77
2023/08/24 18:20:15;;;;;;;4.55;3.30;;;;;;;;;;6214660;28;20064;-76